createdAt,value
2023-05-21T00:02:06.743Z,10.55
2023-05-21T00:04:34.621Z,12.35
2023-05-21T00:07:02.527Z,9.63
2023-05-21T00:09:30.720Z,9.57
2023-05-21T00:11:58.596Z,10.38
2023-05-21T00:14:26.959Z,9.68
2023-05-21T00:16:54.920Z,10.32
2023-05-21T00:19:23.010Z,10.57
2023-05-21T00:21:51.085Z,10.82
2023-05-21T00:24:19.246Z,11.00
2023-05-21T00:26:47.126Z,9.95
2023-05-21T00:29:15.040Z,10.52
2023-05-21T00:31:43.045Z,10.15
2023-05-21T00:34:11.094Z,10.45
2023-05-21T00:36:40.579Z,9.95
2023-05-21T00:39:09.124Z,11.75
2023-05-21T00:41:38.142Z,10.43
2023-05-21T00:44:07.329Z,9.55
2023-05-21T00:46:35.756Z,10.73
2023-05-21T00:49:04.230Z,10.75
2023-05-21T00:51:32.925Z,10.63
2023-05-21T00:54:01.260Z,10.00
2023-05-21T00:56:29.546Z,10.55
2023-05-21T00:58:58.742Z,10.52
2023-05-21T01:01:27.916Z,9.27
2023-05-21T01:03:58.078Z,9.82
2023-05-21T01:06:26.237Z,10.93
2023-05-21T01:08:58.286Z,10.05
2023-05-21T01:11:40.325Z,12.02
2023-05-21T01:14:10.426Z,10.20
2023-05-21T01:16:41.139Z,11.23
2023-05-21T01:19:13.858Z,14.45
2023-05-21T01:21:45.458Z,17.17
2023-05-21T01:24:15.952Z,12.93
2023-05-21T01:26:44.473Z,19.17
2023-05-21T01:29:14.552Z,19.20
2023-05-21T01:32:20.979Z,10.98
2023-05-21T01:34:56.057Z,12.02
2023-05-21T01:37:31.878Z,9.23
2023-05-21T01:40:46.407Z,13.10
2023-05-21T01:45:45.540Z,12.18
2023-05-21T01:48:15.080Z,11.75
2023-05-21T01:50:44.491Z,11.80
2023-05-21T01:53:12.487Z,11.77
2023-05-21T01:55:42.194Z,13.30
2023-05-21T01:58:10.370Z,11.25
2023-05-21T02:00:40.187Z,12.40
2023-05-21T02:03:09.040Z,12.68
2023-05-21T02:05:37.403Z,12.10
2023-05-21T02:08:05.699Z,13.13
2023-05-21T02:10:33.738Z,14.60
2023-05-21T02:13:01.770Z,11.98
2023-05-21T02:15:30.650Z,15.02
2023-05-21T02:17:58.676Z,13.05
2023-05-21T02:20:26.694Z,13.30
2023-05-21T02:22:54.866Z,12.30
2023-05-21T02:25:22.870Z,10.57
2023-05-21T02:27:53.814Z,12.95
2023-05-21T02:30:21.842Z,12.50
2023-05-21T02:32:50.133Z,11.57
2023-05-21T02:35:18.216Z,12.93
2023-05-21T02:37:46.222Z,13.85
2023-05-21T02:40:16.305Z,11.70
2023-05-21T02:42:44.299Z,11.18
2023-05-21T02:45:16.943Z,12.98
2023-05-21T02:47:45.176Z,12.88
2023-05-21T02:50:14.241Z,13.05
2023-05-21T02:52:47.654Z,14.10
2023-05-21T02:55:15.680Z,12.93
2023-05-21T02:57:43.704Z,13.93
2023-05-21T03:00:12.321Z,13.43
2023-05-21T03:02:41.465Z,11.52
2023-05-21T03:05:09.962Z,12.15
2023-05-21T03:07:37.936Z,13.55
2023-05-21T03:10:06.699Z,11.10
2023-05-21T03:12:34.843Z,12.55
2023-05-21T03:15:02.896Z,15.07
2023-05-21T03:17:32.600Z,11.15
2023-05-21T03:20:00.613Z,10.77
2023-05-21T03:22:28.636Z,13.57
2023-05-21T03:24:56.516Z,10.75
2023-05-21T03:27:24.898Z,12.02
2023-05-21T03:29:55.206Z,15.60
2023-05-21T03:32:23.646Z,11.27
2023-05-21T03:34:52.312Z,12.73
2023-05-21T03:37:20.210Z,12.27
2023-05-21T03:39:48.562Z,10.68
2023-05-21T03:42:16.684Z,12.10
2023-05-21T03:44:49.690Z,12.68
2023-05-21T03:47:37.818Z,11.43
2023-05-21T03:50:09.582Z,12.50
2023-05-21T03:52:38.078Z,12.95
2023-05-21T03:55:06.930Z,11.48
2023-05-21T03:57:35.110Z,14.05
2023-05-21T04:00:04.405Z,12.00
2023-05-21T04:02:32.908Z,13.52
2023-05-21T04:05:00.962Z,12.65
2023-05-21T04:07:30.323Z,11.00
2023-05-21T04:09:58.264Z,12.52
2023-05-21T04:12:26.379Z,13.50
2023-05-21T04:14:54.453Z,14.23
2023-05-21T04:17:22.401Z,12.02
2023-05-21T04:19:51.168Z,11.68
2023-05-21T04:22:19.554Z,10.73
2023-05-21T04:24:48.970Z,13.10
2023-05-21T04:27:24.473Z,11.45
2023-05-21T04:29:54.865Z,12.55
2023-05-21T04:32:25.049Z,11.35
2023-05-21T04:34:52.958Z,11.77
2023-05-21T04:37:20.856Z,9.98
2023-05-21T04:39:48.825Z,10.93
2023-05-21T04:42:17.115Z,10.35
2023-05-21T04:44:45.247Z,10.55
2023-05-21T04:47:15.083Z,9.68
2023-05-21T04:49:43.580Z,8.68
2023-05-21T04:52:11.582Z,10.75
2023-05-21T04:54:42.233Z,9.23
2023-05-21T04:57:10.139Z,10.88
2023-05-21T04:59:39.647Z,9.85
2023-05-21T05:02:07.586Z,9.27
2023-05-21T05:04:35.636Z,15.40
2023-05-21T05:07:03.536Z,19.02
2023-05-21T05:09:32.205Z,12.07
2023-05-21T05:12:00.417Z,13.35
2023-05-21T05:14:29.843Z,11.60
2023-05-21T05:17:01.262Z,9.63
2023-05-21T05:19:29.859Z,8.95
2023-05-21T05:21:58.153Z,14.32
2023-05-21T05:24:26.460Z,9.77
2023-05-21T05:26:54.578Z,9.98
2023-05-21T05:29:22.878Z,9.27
2023-05-21T05:31:51.111Z,12.23
2023-05-21T05:34:20.208Z,10.48
2023-05-21T05:36:49.537Z,10.35
2023-05-21T05:39:17.511Z,9.23
2023-05-21T05:41:47.066Z,11.57
2023-05-21T05:44:15.344Z,10.63
2023-05-21T05:46:44.889Z,13.90
2023-05-21T05:49:14.103Z,9.45
2023-05-21T05:51:42.453Z,10.27
2023-05-21T05:54:10.851Z,8.23
2023-05-21T05:56:39.363Z,10.05
2023-05-21T05:59:07.433Z,9.82
2023-05-21T06:01:38.550Z,9.65
2023-05-21T06:04:07.994Z,8.80
2023-05-21T06:06:37.166Z,11.80
2023-05-21T06:09:05.291Z,12.25
2023-05-21T06:11:33.404Z,12.73
2023-05-21T06:14:02.155Z,12.95
2023-05-21T06:16:32.957Z,12.35
2023-05-21T06:19:01.404Z,19.40
2023-05-21T06:21:29.697Z,17.73
2023-05-21T06:23:58.284Z,12.98
2023-05-21T06:26:26.592Z,15.60
2023-05-21T06:28:54.990Z,13.85
2023-05-21T06:31:23.202Z,15.40
2023-05-21T06:33:51.896Z,13.75
2023-05-21T06:36:43.644Z,11.52
2023-05-21T06:39:19.087Z,15.65
2023-05-21T06:41:52.465Z,15.30
2023-05-21T06:44:45.019Z,11.65
2023-05-21T06:47:38.204Z,11.63
2023-05-21T06:50:06.727Z,11.50
2023-05-21T06:52:34.816Z,12.10
2023-05-21T06:55:04.025Z,12.38
2023-05-21T06:57:49.713Z,12.30
2023-05-21T07:00:17.993Z,12.13
2023-05-21T07:02:46.156Z,16.20
2023-05-21T07:05:15.231Z,15.27
2023-05-21T07:07:43.280Z,11.38
2023-05-21T07:10:11.518Z,13.02
2023-05-21T07:12:41.129Z,15.18
2023-05-21T07:15:09.775Z,12.95
2023-05-21T07:17:37.922Z,12.32
2023-05-21T07:20:10.098Z,14.95
2023-05-21T07:22:39.990Z,12.85
2023-05-21T07:25:09.806Z,10.35
2023-05-21T07:27:37.930Z,11.00
2023-05-21T07:30:06.524Z,13.38
2023-05-21T07:32:34.680Z,11.48
2023-05-21T07:35:02.617Z,10.38
2023-05-21T07:37:31.740Z,14.10
2023-05-21T07:40:00.291Z,9.80
2023-05-21T07:42:28.254Z,10.30
2023-05-21T07:44:57.896Z,12.00
2023-05-21T07:47:27.428Z,12.73
2023-05-21T07:49:55.568Z,12.25
2023-05-21T07:52:23.605Z,10.82
2023-05-21T07:54:51.818Z,11.75
2023-05-21T07:57:19.893Z,15.35
2023-05-21T08:00:14.405Z,10.02
2023-05-21T08:02:52.812Z,12.40
2023-05-21T08:05:23.616Z,12.48
2023-05-21T08:07:51.913Z,10.65
2023-05-21T08:10:20.789Z,9.48
2023-05-21T08:12:53.377Z,12.80
2023-05-21T08:15:22.722Z,13.05
2023-05-21T08:17:50.868Z,13.98
2023-05-21T08:20:20.684Z,15.93
2023-05-21T08:22:50.135Z,11.23
2023-05-21T08:25:18.454Z,11.77
2023-05-21T08:27:48.386Z,14.50
2023-05-21T08:30:18.036Z,12.38
2023-05-21T08:32:46.095Z,12.93
2023-05-21T08:35:15.766Z,12.02
2023-05-21T08:38:07.515Z,10.05
2023-05-21T08:40:55.234Z,11.00
2023-05-21T08:43:24.373Z,8.52
2023-05-21T08:45:59.213Z,8.00
2023-05-21T08:48:32.777Z,9.82
2023-05-21T08:51:03.576Z,9.95
2023-05-21T08:53:35.276Z,7.35
2023-05-21T08:56:07.224Z,8.85
2023-05-21T08:58:51.487Z,8.27
2023-05-21T09:01:25.645Z,9.07
2023-05-21T09:04:21.349Z,9.25
2023-05-21T09:06:55.087Z,7.43
2023-05-21T09:10:03.558Z,8.25
2023-05-21T09:12:32.544Z,6.43
2023-05-21T09:15:01.962Z,7.30
2023-05-21T09:17:36.724Z,8.30
2023-05-21T09:20:26.650Z,8.90
2023-05-21T09:23:04.137Z,9.90
2023-05-21T09:25:33.191Z,7.50
2023-05-21T09:28:16.452Z,8.63
2023-05-21T09:30:48.740Z,6.25
2023-05-21T09:33:29.885Z,7.55
2023-05-21T09:35:58.196Z,7.43
2023-05-21T09:38:28.061Z,9.02
2023-05-21T09:40:59.280Z,9.23
2023-05-21T09:43:28.735Z,8.18
2023-05-21T09:45:59.732Z,6.95
2023-05-21T09:48:36.782Z,10.32
2023-05-21T09:51:14.833Z,7.35
2023-05-21T09:53:45.292Z,7.88
2023-05-21T09:56:13.408Z,6.20
2023-05-21T09:58:41.955Z,6.97
2023-05-21T10:01:11.637Z,8.43
2023-05-21T10:03:43.213Z,7.20
2023-05-21T10:06:11.973Z,6.78
2023-05-21T10:08:45.259Z,9.88
2023-05-21T10:11:14.560Z,8.50
2023-05-21T10:13:49.221Z,8.63
2023-05-21T10:16:18.460Z,10.85
2023-05-21T10:18:49.383Z,8.63
2023-05-21T10:21:18.666Z,6.13
2023-05-21T10:23:46.957Z,7.10
2023-05-21T10:26:16.451Z,7.30
2023-05-21T10:28:45.642Z,8.30
2023-05-21T10:31:14.042Z,10.25
2023-05-21T10:33:43.548Z,10.10
2023-05-21T10:36:12.306Z,7.43
2023-05-21T10:38:43.664Z,9.18
2023-05-21T10:41:12.938Z,7.93
2023-05-21T10:44:13.405Z,6.97
2023-05-21T10:47:15.399Z,7.82
2023-05-21T10:50:07.865Z,6.32
2023-05-21T10:52:57.410Z,6.43
2023-05-21T10:55:43.869Z,7.82
2023-05-21T10:58:49.540Z,6.63
2023-05-21T11:01:19.674Z,8.27
2023-05-21T11:03:48.989Z,7.78
2023-05-21T11:06:25.871Z,11.52
2023-05-21T11:09:17.658Z,6.60
2023-05-21T11:11:52.025Z,6.15
2023-05-21T11:14:39.679Z,9.48
2023-05-21T11:17:17.394Z,5.10
2023-05-21T11:19:49.955Z,5.10
2023-05-21T11:22:28.136Z,7.38
2023-05-21T11:25:02.192Z,6.22
2023-05-21T11:27:34.874Z,7.35
2023-05-21T11:30:11.152Z,6.13
2023-05-21T11:33:08.575Z,5.68
2023-05-21T11:35:58.925Z,6.40
2023-05-21T11:38:31.945Z,7.15
2023-05-21T11:41:06.376Z,8.20
2023-05-21T11:43:41.120Z,12.18
2023-05-21T11:46:12.425Z,5.80
2023-05-21T11:48:42.798Z,6.32
2023-05-21T11:51:11.001Z,6.45
2023-05-21T11:53:39.536Z,6.20
2023-05-21T11:56:10.152Z,6.75
2023-05-21T11:58:43.138Z,7.70
2023-05-21T12:01:31.389Z,8.07
2023-05-21T12:03:59.404Z,6.13
2023-05-21T12:06:27.584Z,7.63
2023-05-21T12:08:59.378Z,6.18
2023-05-21T12:11:27.923Z,7.38
2023-05-21T12:13:57.414Z,5.63
2023-05-21T12:16:27.188Z,6.95
2023-05-21T12:18:56.283Z,9.15
2023-05-21T12:21:24.530Z,8.55
2023-05-21T12:23:52.427Z,5.32
2023-05-21T12:26:22.436Z,7.10
2023-05-21T12:28:50.670Z,6.65
2023-05-21T12:31:18.740Z,6.82
2023-05-21T12:33:51.560Z,6.50
2023-05-21T12:36:30.285Z,6.65
2023-05-21T12:38:58.826Z,5.32
2023-05-21T12:41:26.966Z,8.80
2023-05-21T12:43:54.836Z,7.45
2023-05-21T12:46:23.681Z,7.05
2023-05-21T12:48:56.247Z,7.28
2023-05-21T12:51:24.265Z,4.97
2023-05-21T12:53:52.240Z,6.22
2023-05-21T12:56:20.243Z,7.85
2023-05-21T12:58:50.688Z,8.55
2023-05-21T13:01:22.055Z,6.25
2023-05-21T13:03:50.136Z,5.93
2023-05-21T13:06:18.110Z,5.60
2023-05-21T13:08:46.099Z,5.70
2023-05-21T13:11:13.998Z,9.13
2023-05-21T13:13:41.974Z,7.38
2023-05-21T13:16:10.045Z,8.00
2023-05-21T13:18:38.132Z,6.28
2023-05-21T13:21:06.432Z,6.22
2023-05-21T13:23:34.458Z,6.22
2023-05-21T13:26:02.481Z,6.40
2023-05-21T13:28:30.653Z,8.40
2023-05-21T13:30:58.596Z,7.40
2023-05-21T13:33:29.908Z,5.95
2023-05-21T13:35:58.620Z,6.78
2023-05-21T13:38:26.579Z,8.48
2023-05-21T13:40:55.231Z,10.48
2023-05-21T13:43:23.704Z,7.97
2023-05-21T13:45:53.384Z,7.90
2023-05-21T13:48:22.005Z,5.57
2023-05-21T13:50:52.588Z,6.65
2023-05-21T13:53:23.850Z,4.85
2023-05-21T13:55:53.646Z,5.35
2023-05-21T13:58:22.932Z,5.00
2023-05-21T14:00:52.791Z,6.45
2023-05-21T14:03:22.944Z,4.57
2023-05-21T14:05:54.662Z,8.00
2023-05-21T14:08:27.963Z,6.57
2023-05-21T14:10:58.386Z,4.80
2023-05-21T14:13:27.926Z,7.20
2023-05-21T14:15:58.100Z,6.40
2023-05-21T14:18:28.106Z,6.05
2023-05-21T14:20:57.338Z,7.90
2023-05-21T14:23:26.663Z,6.18
2023-05-21T14:25:54.540Z,6.50
2023-05-21T14:28:23.882Z,5.97
2023-05-21T14:30:55.947Z,5.15
2023-05-21T14:33:26.151Z,4.47
2023-05-21T14:35:58.798Z,7.85
2023-05-21T14:38:28.770Z,5.85
2023-05-21T14:40:59.325Z,4.85
2023-05-21T14:43:29.664Z,6.03
2023-05-21T14:45:59.614Z,5.65
2023-05-21T14:48:30.237Z,4.25
2023-05-21T14:51:00.957Z,4.93
2023-05-21T14:53:34.367Z,9.45
2023-05-21T14:56:05.778Z,9.40
2023-05-21T14:58:36.422Z,10.05
2023-05-21T15:01:05.284Z,6.15
2023-05-21T15:03:33.617Z,4.65
2023-05-21T15:06:01.772Z,8.75
2023-05-21T15:08:30.407Z,4.55
2023-05-21T15:10:58.879Z,6.00
2023-05-21T15:13:27.621Z,4.43
2023-05-21T15:16:00.662Z,6.50
2023-05-21T15:18:30.897Z,5.20
2023-05-21T15:20:59.691Z,4.70
2023-05-21T15:23:27.829Z,6.30
2023-05-21T15:25:56.521Z,8.43
2023-05-21T15:28:25.465Z,5.40
2023-05-21T15:30:53.520Z,6.38
2023-05-21T15:33:21.788Z,4.40
2023-05-21T15:35:49.716Z,6.85
2023-05-21T15:38:17.825Z,6.78
2023-05-21T15:40:45.866Z,5.70
2023-05-21T15:43:13.812Z,3.97
2023-05-21T15:45:42.124Z,4.38
2023-05-21T15:48:10.164Z,6.05
2023-05-21T15:50:38.508Z,4.80
2023-05-21T15:53:06.593Z,6.53
2023-05-21T15:55:35.057Z,6.22
2023-05-21T15:58:03.915Z,4.70
2023-05-21T16:00:31.969Z,7.18
2023-05-21T16:03:00.053Z,6.70
2023-05-21T16:05:28.126Z,4.53
2023-05-21T16:07:55.995Z,5.38
2023-05-21T16:10:24.071Z,4.80
2023-05-21T16:12:52.033Z,7.07
2023-05-21T16:15:19.993Z,5.85
2023-05-21T16:17:48.121Z,5.93
2023-05-21T16:20:16.445Z,6.75
2023-05-21T16:22:44.602Z,4.93
2023-05-21T16:25:13.141Z,7.63
2023-05-21T16:27:41.178Z,6.63
2023-05-21T16:30:11.934Z,4.60
2023-05-21T16:32:40.337Z,8.15
2023-05-21T16:35:08.537Z,4.75
2023-05-21T16:37:36.466Z,8.70
2023-05-21T16:40:04.932Z,8.77
2023-05-21T16:42:33.439Z,6.40
2023-05-21T16:45:01.393Z,6.38
2023-05-21T16:47:29.676Z,7.32
2023-05-21T16:49:58.711Z,8.30
2023-05-21T16:52:27.453Z,4.30
2023-05-21T16:54:56.206Z,7.07
2023-05-21T16:57:24.213Z,5.90
2023-05-21T16:59:52.503Z,5.95
2023-05-21T17:02:57.054Z,7.60
2023-05-21T17:05:27.119Z,5.47
2023-05-21T17:07:55.889Z,6.97
2023-05-21T17:10:25.721Z,5.50
2023-05-21T17:12:54.222Z,8.40
2023-05-21T17:15:22.389Z,7.50
2023-05-21T17:17:51.452Z,6.05
2023-05-21T17:20:20.695Z,8.73
2023-05-21T17:22:48.989Z,10.00
2023-05-21T17:25:17.552Z,5.85
2023-05-21T17:27:45.554Z,7.18
2023-05-21T17:30:16.773Z,8.30
2023-05-21T17:32:44.921Z,6.68
2023-05-21T17:35:12.811Z,7.97
2023-05-21T17:37:40.939Z,7.50
2023-05-21T17:40:09.359Z,6.45
2023-05-21T17:42:37.409Z,9.90
2023-05-21T17:45:05.876Z,6.50
2023-05-21T17:47:34.799Z,6.72
2023-05-21T17:50:03.260Z,5.35
2023-05-21T17:52:31.329Z,8.35
2023-05-21T17:54:59.257Z,5.78
2023-05-21T17:57:27.209Z,8.48
2023-05-21T17:59:55.758Z,5.43
2023-05-21T18:02:24.549Z,7.00
2023-05-21T18:04:52.749Z,5.57
2023-05-21T18:07:22.448Z,6.53
2023-05-21T18:09:50.639Z,9.40
2023-05-21T18:12:18.674Z,6.38
2023-05-21T18:14:46.776Z,5.60
2023-05-21T18:17:14.992Z,7.38
2023-05-21T18:19:43.057Z,6.07
2023-05-21T18:22:11.660Z,5.78
2023-05-21T18:24:40.267Z,8.80
2023-05-21T18:27:08.491Z,7.65
2023-05-21T18:29:37.153Z,7.38
2023-05-21T18:32:05.620Z,6.70
2023-05-21T18:34:33.657Z,9.55
2023-05-21T18:37:01.836Z,6.57
2023-05-21T18:39:29.851Z,7.50
2023-05-21T18:42:12.062Z,5.63
2023-05-21T18:44:40.853Z,5.55
2023-05-21T18:47:08.908Z,10.23
2023-05-21T18:49:36.840Z,5.80
2023-05-21T18:52:06.447Z,7.43
2023-05-21T18:54:34.429Z,9.55
2023-05-21T18:57:02.403Z,8.63
2023-05-21T18:59:31.504Z,8.57
2023-05-21T19:01:59.393Z,8.18
2023-05-21T19:04:27.802Z,8.52
2023-05-21T19:06:56.069Z,7.22
2023-05-21T19:09:24.270Z,8.00
2023-05-21T19:11:52.254Z,5.78
2023-05-21T19:14:21.202Z,6.05
2023-05-21T19:16:49.238Z,9.10
2023-05-21T19:19:17.278Z,7.68
2023-05-21T19:21:47.957Z,8.70
2023-05-21T19:24:16.278Z,6.65
2023-05-21T19:26:44.611Z,7.28
2023-05-21T19:29:12.889Z,6.70
2023-05-21T19:31:42.924Z,11.38
2023-05-21T19:34:11.387Z,7.00
2023-05-21T19:36:51.955Z,8.23
2023-05-21T19:39:21.223Z,8.98
2023-05-21T19:41:49.266Z,7.70
2023-05-21T19:44:17.621Z,11.52
2023-05-21T19:46:46.230Z,8.02
2023-05-21T19:49:16.029Z,9.43
2023-05-21T19:51:44.375Z,8.30
2023-05-21T19:54:12.464Z,9.82
2023-05-21T19:56:42.167Z,6.53
2023-05-21T19:59:10.116Z,8.85
2023-05-21T20:01:40.413Z,9.25
2023-05-21T20:04:08.459Z,13.00
2023-05-21T20:06:37.629Z,7.30
2023-05-21T20:09:09.081Z,9.93
2023-05-21T20:11:37.399Z,9.07
2023-05-21T20:14:06.454Z,10.02
2023-05-21T20:16:34.505Z,8.43
2023-05-21T20:19:04.301Z,11.60
2023-05-21T20:21:32.243Z,6.50
2023-05-21T20:24:00.199Z,6.35
2023-05-21T20:26:28.177Z,8.25
2023-05-21T20:28:57.066Z,10.00
2023-05-21T20:31:25.772Z,9.75
2023-05-21T20:33:55.432Z,10.10
2023-05-21T20:36:24.040Z,6.57
2023-05-21T20:38:51.954Z,10.40
2023-05-21T20:41:20.246Z,8.18
2023-05-21T20:43:48.172Z,10.77
2023-05-21T20:46:18.554Z,10.05
2023-05-21T20:48:47.529Z,10.30
2023-05-21T20:51:15.895Z,10.25
2023-05-21T20:53:44.411Z,13.00
2023-05-21T20:56:14.998Z,11.27
2023-05-21T20:58:43.334Z,10.40
2023-05-21T21:01:11.498Z,8.68
2023-05-21T21:03:41.412Z,8.63
2023-05-21T21:06:09.966Z,8.70
2023-05-21T21:08:40.452Z,10.15
2023-05-21T21:11:10.196Z,10.27
2023-05-21T21:13:38.367Z,9.63
2023-05-21T21:16:06.945Z,7.07
2023-05-21T21:18:34.895Z,7.82
2023-05-21T21:21:02.809Z,7.63
2023-05-21T21:23:30.836Z,10.00
2023-05-21T21:25:58.824Z,9.68
2023-05-21T21:28:26.797Z,8.60
2023-05-21T21:30:54.837Z,8.43
2023-05-21T21:33:24.561Z,12.50
2023-05-21T21:35:52.666Z,7.65
2023-05-21T21:38:20.786Z,7.25
2023-05-21T21:40:48.884Z,11.20
2023-05-21T21:43:16.854Z,10.05
2023-05-21T21:45:45.015Z,10.50
2023-05-21T21:48:12.987Z,8.32
2023-05-21T21:50:41.286Z,9.82
2023-05-21T21:53:09.961Z,11.07
2023-05-21T21:55:38.122Z,11.55
2023-05-21T21:58:07.123Z,8.23
2023-05-21T22:00:35.207Z,10.48
2023-05-21T22:03:08.906Z,10.82
2023-05-21T22:05:45.725Z,11.43
2023-05-21T22:08:14.473Z,8.13
2023-05-21T22:10:42.548Z,13.40
2023-05-21T22:14:29.269Z,8.18
2023-05-21T22:17:48.630Z,8.23
2023-05-21T22:20:17.940Z,8.18
2023-05-21T22:22:46.552Z,9.68
2023-05-21T22:25:14.532Z,10.30
2023-05-21T22:27:43.275Z,11.30
2023-05-21T22:30:14.691Z,8.55
2023-05-21T22:32:42.604Z,9.82
2023-05-21T22:35:10.749Z,10.80
2023-05-21T22:37:39.074Z,8.98
2023-05-21T22:40:07.535Z,9.45
2023-05-21T22:42:36.498Z,11.05
2023-05-21T22:45:05.166Z,10.95
2023-05-21T22:47:33.018Z,9.02
2023-05-21T22:50:04.422Z,7.75
2023-05-21T22:52:32.594Z,9.52
2023-05-21T22:55:00.962Z,8.18
2023-05-21T22:57:28.988Z,10.73
2023-05-21T22:59:56.818Z,10.10
2023-05-21T23:02:24.617Z,9.27
2023-05-21T23:04:52.393Z,9.10
2023-05-21T23:07:20.185Z,10.48
2023-05-21T23:10:03.874Z,8.60
2023-05-21T23:12:59.548Z,10.02
2023-05-21T23:15:48.044Z,8.65
2023-05-21T23:18:26.089Z,8.40
2023-05-21T23:20:54.178Z,11.75
2023-05-21T23:23:22.002Z,8.00
2023-05-21T23:25:52.081Z,8.55
2023-05-21T23:28:19.858Z,8.55
2023-05-21T23:30:48.077Z,8.45
2023-05-21T23:33:15.891Z,9.82
2023-05-21T23:35:43.715Z,6.90
2023-05-21T23:38:11.447Z,9.82
2023-05-21T23:40:39.419Z,5.90
2023-05-21T23:43:07.420Z,6.95
2023-05-21T23:45:35.343Z,8.60
2023-05-21T23:48:03.237Z,9.27
2023-05-21T23:50:31.168Z,8.05
2023-05-21T23:52:59.475Z,5.97
2023-05-21T23:55:27.220Z,7.38
2023-05-21T23:57:54.970Z,6.40
